createdAt,value
2023-01-01T00:00:34.054Z,98599.50
2023-01-01T00:03:02.698Z,98604.06
2023-01-01T00:05:31.391Z,98607.72
2023-01-01T00:08:04.456Z,98605.03
2023-01-01T00:10:35.348Z,98597.66
2023-01-01T00:13:03.969Z,98593.47
2023-01-01T00:15:32.865Z,98584.56
2023-01-01T00:18:01.602Z,98587.09
2023-01-01T00:20:34.913Z,98593.47
2023-01-01T00:23:04.403Z,98589.09
2023-01-01T00:25:34.425Z,98590.78
2023-01-01T00:28:03.309Z,98586.56
2023-01-01T00:30:31.973Z,98586.56
2023-01-01T00:33:00.705Z,98582.03
2023-01-01T00:35:29.372Z,98582.03
2023-01-01T00:37:58.370Z,98598.34
2023-01-01T00:40:26.942Z,98593.78
2023-01-01T00:42:56.952Z,98596.63
2023-01-01T00:45:25.728Z,98600.19
2023-01-01T00:47:55.021Z,98597.50
2023-01-01T00:50:24.058Z,98601.03
2023-01-01T00:52:53.013Z,98600.19
2023-01-01T00:55:21.728Z,98600.19
2023-01-01T00:57:50.489Z,98596.63
2023-01-01T01:00:20.923Z,98602.00
2023-01-01T01:02:49.556Z,98606.53
2023-01-01T01:05:18.366Z,98611.91
2023-01-01T01:07:47.043Z,98605.56
2023-01-01T01:10:15.720Z,98593.94
2023-01-01T01:12:44.394Z,98604.69
2023-01-01T01:15:13.396Z,98605.56
2023-01-01T01:17:43.612Z,98616.44
2023-01-01T01:20:12.808Z,98608.38
2023-01-01T01:22:41.655Z,98603.84
2023-01-01T01:25:11.613Z,98619.97
2023-01-01T01:27:40.851Z,98614.59
2023-01-01T01:30:10.701Z,98614.59
2023-01-01T01:32:39.375Z,98606.72
2023-01-01T01:35:10.351Z,98618.09
2023-01-01T01:37:39.298Z,98608.38
2023-01-01T01:40:09.877Z,98611.06
2023-01-01T01:42:38.534Z,98598.66
2023-01-01T01:45:09.242Z,98588.75
2023-01-01T01:47:39.529Z,98586.41
2023-01-01T01:50:13.437Z,98586.22
2023-01-01T01:52:51.730Z,98582.72
2023-01-01T01:55:20.486Z,98586.22
2023-01-01T01:57:49.140Z,98591.59
2023-01-01T02:00:19.909Z,98591.59
2023-01-01T02:02:52.774Z,98582.72
2023-01-01T02:05:23.023Z,98582.72
2023-01-01T02:07:52.365Z,98593.31
2023-01-01T02:10:21.406Z,98587.06
2023-01-01T02:12:50.328Z,98587.06
2023-01-01T02:15:19.360Z,98585.41
2023-01-01T02:17:55.657Z,98595.13
2023-01-01T02:20:39.616Z,98588.09
2023-01-01T02:23:32.944Z,98588.09
2023-01-01T02:26:39.752Z,98579.88
2023-01-01T02:29:25.102Z,98579.19
2023-01-01T02:31:59.242Z,98574.66
2023-01-01T02:34:31.047Z,98572.16
2023-01-01T02:36:59.899Z,98572.81
2023-01-01T02:39:30.577Z,98577.19
2023-01-01T02:41:59.357Z,98597.81
2023-01-01T02:44:29.839Z,98608.38
2023-01-01T02:46:58.408Z,98596.97
2023-01-01T02:49:27.170Z,98598.66
2023-01-01T02:52:03.140Z,98610.25
2023-01-01T02:54:35.348Z,98599.66
2023-01-01T02:57:09.579Z,98609.41
2023-01-01T03:00:07.588Z,98608.53
2023-01-01T03:02:46.669Z,98619.47
2023-01-01T03:05:21.955Z,98625.84
2023-01-01T03:08:00.741Z,98637.22
2023-01-01T03:10:34.711Z,98634.53
2023-01-01T03:13:06.803Z,98622.16
2023-01-01T03:15:40.135Z,98622.16
2023-01-01T03:18:11.790Z,98631.22
2023-01-01T03:20:42.772Z,98638.41
2023-01-01T03:23:15.274Z,98620.47
2023-01-01T03:25:47.041Z,98624.81
2023-01-01T03:28:18.093Z,98632.03
2023-01-01T03:30:48.919Z,98634.03
2023-01-01T03:33:19.832Z,98626.81
2023-01-01T03:35:51.704Z,98624.16
2023-01-01T03:38:23.700Z,98628.69
2023-01-01T03:40:55.598Z,98636.59
2023-01-01T03:43:35.139Z,98628.69
2023-01-01T03:46:05.616Z,98633.22
2023-01-01T03:49:02.094Z,98642.94
2023-01-01T03:51:44.934Z,98621.66
2023-01-01T03:54:17.465Z,98617.09
2023-01-01T03:56:48.105Z,98618.25
2023-01-01T03:59:19.574Z,98605.81
2023-01-01T04:01:51.711Z,98602.00
2023-01-01T04:04:20.800Z,98604.69
2023-01-01T04:06:49.437Z,98602.97
2023-01-01T04:09:22.423Z,98604.69
2023-01-01T04:12:04.563Z,98598.31
2023-01-01T04:14:36.658Z,98601.00
2023-01-01T04:17:07.739Z,98606.38
2023-01-01T04:19:36.356Z,98615.25
2023-01-01T04:22:05.611Z,98612.72
2023-01-01T04:24:34.338Z,98623.47
2023-01-01T04:27:03.098Z,98626.16
2023-01-01T04:29:31.789Z,98622.63
2023-01-01T04:32:00.439Z,98636.03
2023-01-01T04:34:30.486Z,98633.38
2023-01-01T04:36:59.293Z,98642.25
2023-01-01T04:39:27.872Z,98647.63
2023-01-01T04:41:56.622Z,98634.88
2023-01-01T04:44:25.380Z,98631.50
2023-01-01T04:46:59.901Z,98650.44
2023-01-01T04:49:30.516Z,98643.22
2023-01-01T04:51:59.215Z,98633.50
2023-01-01T04:54:27.772Z,98640.56
2023-01-01T04:56:56.703Z,98646.06
2023-01-01T04:59:25.440Z,98651.28
2023-01-01T05:01:54.660Z,98650.44
2023-01-01T05:04:23.545Z,98652.31
2023-01-01T05:06:53.808Z,98655.81
2023-01-01T05:09:22.952Z,98662.03
2023-01-01T05:11:51.712Z,98672.75
2023-01-01T05:14:20.332Z,98674.59
2023-01-01T05:16:49.183Z,98683.50
2023-01-01T05:19:17.828Z,98676.31
2023-01-01T05:21:46.866Z,98680.97
2023-01-01T05:24:17.111Z,98682.81
2023-01-01T05:26:46.246Z,98683.63
2023-01-01T05:29:16.859Z,98681.81
2023-01-01T05:31:46.650Z,98674.75
2023-01-01T05:34:15.830Z,98671.09
2023-01-01T05:36:44.713Z,98664.84
2023-01-01T05:39:13.911Z,98663.03
2023-01-01T05:41:43.898Z,98660.34
2023-01-01T05:44:12.990Z,98666.69
2023-01-01T05:46:41.634Z,98666.56
2023-01-01T05:49:12.206Z,98667.53
2023-01-01T05:56:36.868Z,98672.75
2023-01-01T05:59:07.051Z,98676.47
2023-01-01T06:01:43.304Z,98672.06
2023-01-01T06:04:14.153Z,98673.91
2023-01-01T06:06:43.168Z,98668.41
2023-01-01T06:09:11.967Z,98679.13
2023-01-01T06:11:41.079Z,98676.47
2023-01-01T06:14:11.147Z,98696.91
2023-01-01T06:16:39.822Z,98689.88
2023-01-01T06:19:08.773Z,98689.00
2023-01-01T06:21:37.575Z,98696.22
2023-01-01T06:24:08.506Z,98701.59
2023-01-01T06:26:37.362Z,98709.50
2023-01-01T06:29:06.239Z,98709.66
2023-01-01T06:31:40.656Z,98720.38
2023-01-01T06:34:10.275Z,98718.38
2023-01-01T06:36:39.133Z,98725.75
2023-01-01T06:39:07.944Z,98727.44
2023-01-01T06:41:36.663Z,98732.81
2023-01-01T06:44:05.805Z,98736.34
2023-01-01T06:46:37.086Z,98740.88
2023-01-01T06:49:07.305Z,98752.59
2023-01-01T06:51:38.504Z,98755.28
2023-01-01T06:54:07.676Z,98752.59
2023-01-01T06:56:36.474Z,98758.78
2023-01-01T06:59:05.537Z,98757.97
2023-01-01T07:01:36.786Z,98763.31
2023-01-01T07:04:06.608Z,98762.34
2023-01-01T07:06:35.666Z,98756.09
2023-01-01T07:09:04.774Z,98758.97
2023-01-01T07:11:33.489Z,98767.72
2023-01-01T07:14:02.246Z,98763.31
2023-01-01T07:16:31.241Z,98763.31
2023-01-01T07:19:01.412Z,98770.41
2023-01-01T07:21:32.175Z,98778.59
2023-01-01T07:24:01.357Z,98793.84
2023-01-01T07:26:30.915Z,98798.22
2023-01-01T07:29:06.330Z,98791.88
2023-01-01T07:31:36.721Z,98789.88
2023-01-01T07:34:06.850Z,98791.72
2023-01-01T07:36:35.625Z,98791.88
2023-01-01T07:39:04.396Z,98794.56
2023-01-01T07:41:33.168Z,98796.22
2023-01-01T07:44:01.778Z,98807.28
2023-01-01T07:46:30.923Z,98799.38
2023-01-01T07:48:59.553Z,98807.81
2023-01-01T07:51:29.604Z,98811.34
2023-01-01T07:54:03.942Z,98807.28
2023-01-01T07:56:35.838Z,98808.66
2023-01-01T07:59:04.722Z,98816.16
2023-01-01T08:01:36.008Z,98820.78
2023-01-01T08:04:04.978Z,98819.25
2023-01-01T08:06:34.921Z,98823.59
2023-01-01T08:09:03.563Z,98837.72
2023-01-01T08:11:32.268Z,98832.03
2023-01-01T08:14:00.943Z,98828.66
2023-01-01T08:16:29.562Z,98835.72
2023-01-01T08:18:58.419Z,98834.72
2023-01-01T08:21:27.325Z,98828.34
2023-01-01T08:23:57.388Z,98832.56
2023-01-01T08:26:30.803Z,98830.53
2023-01-01T08:29:00.065Z,98829.50
2023-01-01T08:31:29.027Z,98829.16
2023-01-01T08:33:58.231Z,98837.34
2023-01-01T08:36:27.219Z,98842.84
2023-01-01T08:38:57.475Z,98834.13
2023-01-01T08:41:26.172Z,98840.19
2023-01-01T08:43:55.061Z,98836.56
2023-01-01T08:46:23.851Z,98835.53
2023-01-01T08:48:52.542Z,98845.13
2023-01-01T08:51:21.153Z,98849.19
2023-01-01T08:53:51.481Z,98847.50
2023-01-01T08:56:21.833Z,98847.81
2023-01-01T08:58:50.451Z,98846.00
2023-01-01T09:01:21.883Z,98856.41
2023-01-01T09:03:50.758Z,98844.50
2023-01-01T09:06:19.393Z,98837.28
2023-01-01T09:08:48.077Z,98840.28
2023-01-01T09:11:24.500Z,98846.31
2023-01-01T09:13:53.228Z,98847.84
2023-01-01T09:16:22.264Z,98838.63
2023-01-01T09:18:50.882Z,98833.25
2023-01-01T09:21:19.446Z,98819.84
2023-01-01T09:23:48.233Z,98817.16
2023-01-01T09:26:16.770Z,98826.72
2023-01-01T09:28:46.718Z,98819.03
2023-01-01T09:31:15.377Z,98820.75
2023-01-01T09:33:44.037Z,98828.63
2023-01-01T09:36:17.235Z,98828.28
2023-01-01T09:38:50.307Z,98831.84
2023-01-01T09:41:22.726Z,98832.81
2023-01-01T09:43:58.780Z,98827.44
2023-01-01T09:46:31.725Z,98827.31
2023-01-01T09:49:04.304Z,98830.66
2023-01-01T09:51:39.885Z,98825.13
2023-01-01T09:54:15.373Z,98833.19
2023-01-01T09:56:43.968Z,98830.66
2023-01-01T09:59:14.120Z,98831.31
2023-01-01T10:01:47.479Z,98827.66
2023-01-01T10:04:47.879Z,98818.09
2023-01-01T10:07:21.181Z,98826.28
2023-01-01T10:09:55.557Z,98828.97
2023-01-01T10:12:28.942Z,98829.66
2023-01-01T10:15:03.424Z,98830.50
2023-01-01T10:17:36.153Z,98821.75
2023-01-01T10:20:07.870Z,98829.16
2023-01-01T10:22:38.977Z,98828.13
2023-01-01T10:25:16.670Z,98828.50
2023-01-01T10:27:51.333Z,98815.53
2023-01-01T10:30:25.738Z,98823.44
2023-01-01T10:32:55.672Z,98807.34
2023-01-01T10:35:31.158Z,98812.72
2023-01-01T10:38:00.383Z,98807.16
2023-01-01T10:40:30.283Z,98805.16
2023-01-01T10:42:59.788Z,98805.16
2023-01-01T10:45:33.589Z,98813.38
2023-01-01T10:48:13.360Z,98812.72
2023-01-01T10:50:52.591Z,98811.53
2023-01-01T10:53:27.411Z,98808.00
2023-01-01T10:56:05.842Z,98799.94
2023-01-01T10:58:44.401Z,98797.94
2023-01-01T11:01:20.761Z,98794.41
2023-01-01T11:03:58.751Z,98788.03
2023-01-01T11:06:28.480Z,98796.09
2023-01-01T11:08:58.497Z,98790.72
2023-01-01T11:11:31.345Z,98788.22
2023-01-01T11:14:01.368Z,98780.31
2023-01-01T11:16:31.637Z,98776.78
2023-01-01T11:19:07.259Z,98771.25
2023-01-01T11:21:36.375Z,98753.44
2023-01-01T11:24:20.632Z,98765.03
2023-01-01T11:26:54.615Z,98767.72
2023-01-01T11:29:27.817Z,98766.88
2023-01-01T11:31:58.345Z,98761.50
2023-01-01T11:34:33.239Z,98758.66
2023-01-01T11:37:16.785Z,98758.66
2023-01-01T11:39:46.305Z,98768.56
2023-01-01T11:42:19.902Z,98779.31
2023-01-01T11:44:50.121Z,98783.00
2023-01-01T11:47:26.485Z,98788.69
2023-01-01T11:49:57.036Z,98792.22
2023-01-01T11:52:34.709Z,98794.06
2023-01-01T11:55:10.314Z,98785.00
2023-01-01T11:57:42.455Z,98787.66
2023-01-01T12:00:15.674Z,98769.06
2023-01-01T12:02:49.829Z,98780.63
2023-01-01T12:05:22.158Z,98783.50
2023-01-01T12:07:50.737Z,98783.16
2023-01-01T12:10:23.291Z,98778.78
2023-01-01T12:12:54.645Z,98769.75
2023-01-01T12:15:27.613Z,98766.03
2023-01-01T12:18:03.030Z,98774.94
2023-01-01T12:20:33.801Z,98776.78
2023-01-01T12:23:03.437Z,98774.25
2023-01-01T12:25:37.474Z,98759.00
2023-01-01T12:28:16.619Z,98759.84
2023-01-01T12:30:50.032Z,98750.75
2023-01-01T12:33:38.803Z,98753.44
2023-01-01T12:36:23.223Z,98754.28
2023-01-01T12:39:50.436Z,98763.34
2023-01-01T12:42:21.490Z,98769.56
2023-01-01T12:45:05.579Z,98767.56
2023-01-01T12:47:40.583Z,98765.88
2023-01-01T12:50:18.218Z,98764.19
2023-01-01T12:52:55.767Z,98768.88
2023-01-01T12:55:43.672Z,98783.97
2023-01-01T12:58:14.395Z,98789.84
2023-01-01T13:00:44.879Z,98791.88
2023-01-01T13:03:19.327Z,98796.78
2023-01-01T13:05:51.460Z,98791.06
2023-01-01T13:08:20.133Z,98800.13
2023-01-01T13:10:50.389Z,98805.19
2023-01-01T13:15:51.805Z,98796.28
2023-01-01T13:18:23.991Z,98793.41
2023-01-01T13:21:08.886Z,98793.41
2023-01-01T13:24:04.311Z,98799.66
2023-01-01T13:26:42.988Z,98803.88
2023-01-01T13:29:37.176Z,98804.16
2023-01-01T13:32:11.055Z,98800.81
2023-01-01T13:35:03.712Z,98785.88
2023-01-01T13:37:51.195Z,98799.81
2023-01-01T13:40:51.180Z,98807.72
2023-01-01T13:43:22.233Z,98811.53
2023-01-01T13:49:16.843Z,98828.72
2023-01-01T13:52:10.944Z,98824.50
2023-01-01T13:55:30.761Z,98830.03
2023-01-01T13:58:21.064Z,98841.94
2023-01-01T14:01:07.289Z,98845.75
2023-01-01T14:03:41.817Z,98842.25
2023-01-01T14:06:12.997Z,98840.72
2023-01-01T14:08:43.354Z,98835.50
2023-01-01T14:11:25.262Z,98839.31
2023-01-01T14:13:54.029Z,98835.78
2023-01-01T14:16:22.817Z,98837.50
2023-01-01T14:18:53.490Z,98833.94
2023-01-01T14:21:23.572Z,98835.50
2023-01-01T14:23:54.013Z,98843.78
2023-01-01T14:26:25.647Z,98849.38
2023-01-01T14:28:55.629Z,98858.94
2023-01-01T14:31:25.763Z,98858.75
2023-01-01T14:33:54.334Z,98867.13
2023-01-01T14:36:24.264Z,98852.56
2023-01-01T14:38:54.100Z,98853.22
2023-01-01T14:41:28.395Z,98861.97
2023-01-01T14:43:58.920Z,98861.81
2023-01-01T14:46:28.128Z,98856.78
2023-01-01T14:49:01.236Z,98856.44
2023-01-01T14:51:31.837Z,98863.84
2023-01-01T14:54:01.724Z,98868.53
2023-01-01T14:56:35.413Z,98867.88
2023-01-01T14:59:08.785Z,98869.03
2023-01-01T15:01:37.771Z,98875.94
2023-01-01T15:04:18.835Z,98879.91
2023-01-01T15:06:47.618Z,98884.31
2023-01-01T15:09:16.800Z,98888.00
2023-01-01T15:11:46.777Z,98886.16
2023-01-01T15:14:34.931Z,98882.50
2023-01-01T15:17:04.763Z,98892.22
2023-01-01T15:19:35.125Z,98891.22
2023-01-01T15:22:03.906Z,98895.09
2023-01-01T15:24:33.553Z,98904.50
2023-01-01T15:27:05.512Z,98898.63
2023-01-01T15:29:35.500Z,98911.16
2023-01-01T15:32:05.807Z,98904.97
2023-01-01T15:34:36.096Z,98913.19
2023-01-01T15:37:11.420Z,98905.81
2023-01-01T15:39:51.127Z,98905.81
2023-01-01T15:42:34.374Z,98907.50
2023-01-01T15:45:22.764Z,98903.81
2023-01-01T15:47:51.904Z,98905.66
2023-01-01T15:50:25.482Z,98903.81
2023-01-01T15:52:56.186Z,98915.38
2023-01-01T15:55:24.852Z,98905.81
2023-01-01T15:57:54.951Z,98907.50
2023-01-01T16:00:24.883Z,98923.63
2023-01-01T16:02:54.180Z,98917.41
2023-01-01T16:05:25.636Z,98912.88
2023-01-01T16:08:00.658Z,98914.53
2023-01-01T16:10:29.418Z,98909.19
2023-01-01T16:13:02.829Z,98918.25
2023-01-01T16:15:33.424Z,98913.72
2023-01-01T16:18:03.953Z,98911.88
2023-01-01T16:20:32.565Z,98916.91
2023-01-01T16:23:01.179Z,98915.94
2023-01-01T16:25:29.960Z,98918.44
2023-01-01T16:27:59.934Z,98922.66
2023-01-01T16:30:28.588Z,98922.13
2023-01-01T16:32:57.324Z,98905.69
2023-01-01T16:35:25.925Z,98909.91
2023-01-01T16:37:54.518Z,98912.91
2023-01-01T16:40:23.235Z,98917.28
2023-01-01T16:42:51.813Z,98919.81
2023-01-01T16:45:21.831Z,98914.09
2023-01-01T16:47:50.440Z,98916.25
2023-01-01T16:50:19.305Z,98915.72
2023-01-01T16:52:47.846Z,98923.75
2023-01-01T16:55:16.783Z,98920.56
2023-01-01T16:57:45.383Z,98923.94
2023-01-01T17:00:15.426Z,98925.75
2023-01-01T17:02:45.609Z,98919.59
2023-01-01T17:05:14.590Z,98915.94
2023-01-01T17:07:43.174Z,98911.88
2023-01-01T17:10:11.882Z,98923.81
2023-01-01T17:12:40.530Z,98927.00
2023-01-01T17:15:10.355Z,98919.91
2023-01-01T17:17:39.009Z,98929.03
2023-01-01T17:20:10.119Z,98934.03
2023-01-01T17:22:38.756Z,98943.41
2023-01-01T17:25:09.081Z,98942.41
2023-01-01T17:27:37.768Z,98948.94
2023-01-01T17:30:08.191Z,98945.75
2023-01-01T17:32:39.796Z,98939.41
2023-01-01T17:35:11.065Z,98939.72
2023-01-01T17:37:39.652Z,98952.63
2023-01-01T17:40:10.066Z,98942.03
2023-01-01T17:42:38.693Z,98944.56
2023-01-01T17:45:09.735Z,98945.44
2023-01-01T17:47:38.596Z,98936.34
2023-01-01T17:50:10.476Z,98946.09
2023-01-01T17:52:39.263Z,98949.63
2023-01-01T17:55:09.279Z,98954.13
2023-01-01T17:57:38.143Z,98953.16
2023-01-01T18:00:10.637Z,98957.97
2023-01-01T18:02:39.466Z,98955.28
2023-01-01T18:05:10.372Z,98965.09
2023-01-01T18:07:39.177Z,98971.63
2023-01-01T18:10:09.132Z,98967.94
2023-01-01T18:12:37.996Z,98973.84
2023-01-01T18:15:07.943Z,98969.28
2023-01-01T18:17:36.720Z,98973.63
2023-01-01T18:20:06.577Z,98969.97
2023-01-01T18:22:42.946Z,98967.94
2023-01-01T18:25:12.156Z,98969.63
2023-01-01T18:27:41.134Z,98966.97
2023-01-01T18:30:10.858Z,98969.63
2023-01-01T18:32:39.698Z,98966.63
2023-01-01T18:35:09.993Z,98969.63
2023-01-01T18:37:39.968Z,98970.63
2023-01-01T18:40:13.284Z,98969.97
2023-01-01T18:42:46.177Z,98974.47
2023-01-01T18:45:19.639Z,98981.69
2023-01-01T18:47:48.415Z,98976.50
2023-01-01T18:50:23.825Z,98981.00
2023-01-01T18:52:56.575Z,98987.91
2023-01-01T18:55:28.169Z,98983.53
2023-01-01T18:58:00.312Z,98981.00
2023-01-01T19:00:31.292Z,98992.44
2023-01-01T19:03:01.061Z,98995.50
2023-01-01T19:05:31.151Z,98997.81
2023-01-01T19:08:11.852Z,98995.44
2023-01-01T19:10:41.951Z,98994.59
2023-01-01T19:13:17.246Z,98992.88
2023-01-01T19:15:47.456Z,98997.44
2023-01-01T19:18:18.077Z,98992.88
2023-01-01T19:20:47.154Z,98989.53
2023-01-01T19:23:20.925Z,98996.59
2023-01-01T19:25:49.951Z,99001.97
2023-01-01T19:28:37.220Z,99001.97
2023-01-01T19:31:09.034Z,99005.16
2023-01-01T19:33:37.688Z,99007.00
2023-01-01T19:36:07.200Z,99014.09
2023-01-01T19:38:37.259Z,99022.44
2023-01-01T19:41:06.436Z,99016.41
2023-01-01T19:43:35.043Z,99012.88
2023-01-01T19:46:03.996Z,99022.75
2023-01-01T19:48:32.767Z,99016.41
2023-01-01T19:51:01.447Z,99010.19
2023-01-01T19:53:30.160Z,99015.38
2023-01-01T19:56:00.550Z,99011.88
2023-01-01T19:58:29.150Z,99017.22
2023-01-01T20:00:57.874Z,99017.22
2023-01-01T20:03:52.620Z,99013.84
2023-01-01T20:06:15.627Z,99011.16
2023-01-01T20:08:44.554Z,99018.25
2023-01-01T20:11:15.587Z,99012.88
2023-01-01T20:13:44.306Z,99014.88
2023-01-01T20:16:13.202Z,99019.22
2023-01-01T20:18:42.034Z,99013.03
2023-01-01T20:21:28.308Z,99016.53
2023-01-01T20:23:57.037Z,99013.84
2023-01-01T20:26:27.516Z,99012.19
2023-01-01T20:29:13.458Z,99010.47
2023-01-01T20:31:43.047Z,99015.72
2023-01-01T20:34:11.807Z,99022.91
2023-01-01T20:36:57.962Z,99021.22
2023-01-01T20:39:26.965Z,99028.28
2023-01-01T20:41:57.441Z,99015.72
2023-01-01T20:44:26.095Z,99027.28
2023-01-01T20:46:55.055Z,99024.59
2023-01-01T20:49:23.919Z,99017.56
2023-01-01T20:51:53.650Z,99019.22
2023-01-01T20:54:22.944Z,99020.06
2023-01-01T20:56:51.644Z,99012.19
2023-01-01T20:59:38.920Z,99012.19
2023-01-01T21:02:08.575Z,99015.00
2023-01-01T21:04:39.048Z,99018.53
2023-01-01T21:07:09.423Z,99024.06
2023-01-01T21:09:38.195Z,99022.22
2023-01-01T21:12:07.489Z,99022.22
2023-01-01T21:14:38.180Z,99029.59
2023-01-01T21:17:19.486Z,99029.44
2023-01-01T21:19:48.593Z,99033.97
2023-01-01T21:22:17.346Z,99031.28
2023-01-01T21:24:51.766Z,99025.06
2023-01-01T21:27:25.726Z,99017.88
2023-01-01T21:29:57.921Z,99020.56
2023-01-01T21:32:28.912Z,99022.38
2023-01-01T21:34:57.750Z,99016.34
2023-01-01T21:37:45.359Z,99017.88
2023-01-01T21:40:39.178Z,99015.31
2023-01-01T21:43:35.831Z,99013.66
2023-01-01T21:46:19.416Z,99021.84
2023-01-01T21:48:55.621Z,99025.06
2023-01-01T21:51:25.826Z,99010.97
2023-01-01T21:53:55.303Z,99010.28
2023-01-01T21:56:29.936Z,99012.25
2023-01-01T21:59:21.517Z,99012.44
2023-01-01T22:01:51.786Z,99011.44
2023-01-01T22:04:22.316Z,99013.41
2023-01-01T22:06:52.433Z,99010.72
2023-01-01T22:09:23.904Z,99017.50
2023-01-01T22:11:54.380Z,99019.34
2023-01-01T22:14:26.691Z,99029.22
2023-01-01T22:16:57.082Z,99025.38
2023-01-01T22:19:25.936Z,99018.16
2023-01-01T22:21:54.649Z,99022.53
2023-01-01T22:24:33.604Z,99018.84
2023-01-01T22:27:20.864Z,99024.41
2023-01-01T22:29:49.847Z,99012.13
2023-01-01T22:32:24.292Z,99015.97
2023-01-01T22:34:53.856Z,99004.38
2023-01-01T22:37:24.776Z,99006.38
2023-01-01T22:39:53.469Z,99001.00
2023-01-01T22:42:25.121Z,99004.66
2023-01-01T22:44:58.639Z,98994.78
2023-01-01T22:47:35.972Z,98994.31
2023-01-01T22:50:05.801Z,98988.28
2023-01-01T22:52:34.591Z,98978.38
2023-01-01T22:55:03.801Z,98999.84
2023-01-01T22:57:32.576Z,98991.78
2023-01-01T23:00:01.310Z,98993.31
2023-01-01T23:02:31.671Z,98997.84
2023-01-01T23:05:00.957Z,98999.69
2023-01-01T23:07:29.707Z,98991.63
2023-01-01T23:09:58.446Z,98986.25
2023-01-01T23:12:27.143Z,98988.94
2023-01-01T23:15:13.399Z,98979.22
2023-01-01T23:17:43.658Z,98988.94
2023-01-01T23:20:13.210Z,98984.56
2023-01-01T23:22:45.040Z,98986.94
2023-01-01T23:25:16.069Z,98973.53
2023-01-01T23:27:45.259Z,98975.50
2023-01-01T23:30:15.085Z,98974.53
2023-01-01T23:32:45.103Z,98974.53
2023-01-01T23:35:13.996Z,98975.50
2023-01-01T23:37:42.681Z,98974.53
2023-01-01T23:40:12.974Z,98973.84
2023-01-01T23:42:42.206Z,98969.47
2023-01-01T23:45:11.647Z,98973.16
2023-01-01T23:47:40.530Z,98973.16
2023-01-01T23:50:11.188Z,98977.53
2023-01-01T23:52:40.039Z,98973.00
2023-01-01T23:55:10.168Z,98970.47
2023-01-01T23:57:38.929Z,98965.09
